sensor_id;sensor_type;location;lat;lon;timestamp;temperature;humidity
47779;DHT22;33538;48.432;11.350;2022-09-09T00:01:49;17.30;79.60
47779;DHT22;33538;48.432;11.350;2022-09-09T00:04:25;17.10;80.90
47779;DHT22;33538;48.432;11.350;2022-09-09T00:06:59;17.20;81.80
47779;DHT22;33538;48.432;11.350;2022-09-09T00:09:29;17.20;81.30
47779;DHT22;33538;48.432;11.350;2022-09-09T00:12:01;17.20;80.30
47779;DHT22;33538;48.432;11.350;2022-09-09T00:14:36;17.30;79.90
47779;DHT22;33538;48.432;11.350;2022-09-09T00:17:10;17.20;79.90
47779;DHT22;33538;48.432;11.350;2022-09-09T00:19:44;17.20;79.50
47779;DHT22;33538;48.432;11.350;2022-09-09T00:22:17;17.20;79.30
47779;DHT22;33538;48.432;11.350;2022-09-09T00:24:45;17.20;78.70
47779;DHT22;33538;48.432;11.350;2022-09-09T00:27:19;17.20;78.80
47779;DHT22;33538;48.432;11.350;2022-09-09T00:29:53;17.20;78.60
47779;DHT22;33538;48.432;11.350;2022-09-09T00:32:24;17.20;78.80
47779;DHT22;33538;48.432;11.350;2022-09-09T00:34:56;17.20;78.50
47779;DHT22;33538;48.432;11.350;2022-09-09T00:37:26;17.10;79.00
47779;DHT22;33538;48.432;11.350;2022-09-09T00:39:56;17.10;79.40
47779;DHT22;33538;48.432;11.350;2022-09-09T00:42:26;17.10;80.00
47779;DHT22;33538;48.432;11.350;2022-09-09T00:44:58;17.00;79.80
47779;DHT22;33538;48.432;11.350;2022-09-09T00:47:39;17.00;80.20
47779;DHT22;33538;48.432;11.350;2022-09-09T00:50:24;17.00;79.80
47779;DHT22;33538;48.432;11.350;2022-09-09T00:53:02;17.10;79.70
47779;DHT22;33538;48.432;11.350;2022-09-09T00:55:39;17.10;79.40
47779;DHT22;33538;48.432;11.350;2022-09-09T00:58:09;17.00;79.20
47779;DHT22;33538;48.432;11.350;2022-09-09T01:00:42;17.00;79.70
47779;DHT22;33538;48.432;11.350;2022-09-09T01:03:25;17.00;79.50
47779;DHT22;33538;48.432;11.350;2022-09-09T01:06:03;16.90;79.90
47779;DHT22;33538;48.432;11.350;2022-09-09T01:08:43;16.70;81.40
47779;DHT22;33538;48.432;11.350;2022-09-09T01:11:17;16.80;80.40
47779;DHT22;33538;48.432;11.350;2022-09-09T01:13:47;16.90;80.20
47779;DHT22;33538;48.432;11.350;2022-09-09T01:16:17;17.00;80.00
47779;DHT22;33538;48.432;11.350;2022-09-09T01:18:48;16.90;79.50
47779;DHT22;33538;48.432;11.350;2022-09-09T01:21:20;16.90;79.70
47779;DHT22;33538;48.432;11.350;2022-09-09T01:24:05;16.90;79.70
47779;DHT22;33538;48.432;11.350;2022-09-09T01:26:37;16.90;79.40
47779;DHT22;33538;48.432;11.350;2022-09-09T01:29:08;16.90;80.00
47779;DHT22;33538;48.432;11.350;2022-09-09T01:31:37;16.80;80.00
47779;DHT22;33538;48.432;11.350;2022-09-09T01:34:10;16.70;80.80
47779;DHT22;33538;48.432;11.350;2022-09-09T01:36:40;16.70;80.90
47779;DHT22;33538;48.432;11.350;2022-09-09T01:39:07;16.70;80.80
47779;DHT22;33538;48.432;11.350;2022-09-09T01:41:36;16.70;80.80
47779;DHT22;33538;48.432;11.350;2022-09-09T01:44:03;16.80;80.50
47779;DHT22;33538;48.432;11.350;2022-09-09T01:46:30;16.80;80.30
47779;DHT22;33538;48.432;11.350;2022-09-09T01:48:57;16.80;80.10
47779;DHT22;33538;48.432;11.350;2022-09-09T01:51:25;16.80;80.10
47779;DHT22;33538;48.432;11.350;2022-09-09T01:53:52;16.80;80.30
47779;DHT22;33538;48.432;11.350;2022-09-09T01:56:29;16.80;80.10
47779;DHT22;33538;48.432;11.350;2022-09-09T01:59:10;16.80;80.20
47779;DHT22;33538;48.432;11.350;2022-09-09T02:01:48;16.80;80.00
47779;DHT22;33538;48.432;11.350;2022-09-09T02:04:27;16.80;80.30
47779;DHT22;33538;48.432;11.350;2022-09-09T02:06:56;16.80;80.30
47779;DHT22;33538;48.432;11.350;2022-09-09T02:09:24;16.70;80.30
47779;DHT22;33538;48.432;11.350;2022-09-09T02:11:58;16.70;80.60
47779;DHT22;33538;48.432;11.350;2022-09-09T02:14:28;16.70;81.10
47779;DHT22;33538;48.432;11.350;2022-09-09T02:16:59;16.60;81.90
47779;DHT22;33538;48.432;11.350;2022-09-09T02:19:31;16.40;82.60
47779;DHT22;33538;48.432;11.350;2022-09-09T02:22:00;16.60;81.90
47779;DHT22;33538;48.432;11.350;2022-09-09T02:24:29;16.60;81.80
47779;DHT22;33538;48.432;11.350;2022-09-09T02:26:58;16.70;81.60
47779;DHT22;33538;48.432;11.350;2022-09-09T02:29:32;16.70;81.00
47779;DHT22;33538;48.432;11.350;2022-09-09T02:32:03;16.60;81.00
47779;DHT22;33538;48.432;11.350;2022-09-09T02:34:33;16.60;81.00
47779;DHT22;33538;48.432;11.350;2022-09-09T02:37:02;16.60;80.80
47779;DHT22;33538;48.432;11.350;2022-09-09T02:39:30;16.50;81.00
47779;DHT22;33538;48.432;11.350;2022-09-09T02:41:57;16.50;81.40
47779;DHT22;33538;48.432;11.350;2022-09-09T02:44:23;16.30;82.40
47779;DHT22;33538;48.432;11.350;2022-09-09T02:47:16;16.30;83.30
47779;DHT22;33538;48.432;11.350;2022-09-09T02:49:57;16.30;82.50
47779;DHT22;33538;48.432;11.350;2022-09-09T02:52:31;16.50;82.00
47779;DHT22;33538;48.432;11.350;2022-09-09T02:55:04;16.60;81.60
47779;DHT22;33538;48.432;11.350;2022-09-09T02:57:33;16.60;81.50
47779;DHT22;33538;48.432;11.350;2022-09-09T03:00:01;16.40;82.50
47779;DHT22;33538;48.432;11.350;2022-09-09T03:02:29;16.00;85.40
47779;DHT22;33538;48.432;11.350;2022-09-09T03:04:56;15.70;88.40
47779;DHT22;33538;48.432;11.350;2022-09-09T03:07:23;15.90;87.10
47779;DHT22;33538;48.432;11.350;2022-09-09T03:09:50;16.20;85.90
47779;DHT22;33538;48.432;11.350;2022-09-09T03:12:17;16.40;84.00
47779;DHT22;33538;48.432;11.350;2022-09-09T03:14:43;16.40;84.00
47779;DHT22;33538;48.432;11.350;2022-09-09T03:17:10;16.50;82.90
47779;DHT22;33538;48.432;11.350;2022-09-09T03:19:38;16.50;82.80
47779;DHT22;33538;48.432;11.350;2022-09-09T03:22:05;16.50;83.00
47779;DHT22;33538;48.432;11.350;2022-09-09T03:24:32;16.50;82.50
47779;DHT22;33538;48.432;11.350;2022-09-09T03:26:59;16.40;83.50
47779;DHT22;33538;48.432;11.350;2022-09-09T03:29:25;15.90;87.70
47779;DHT22;33538;48.432;11.350;2022-09-09T03:31:52;15.90;87.30
47779;DHT22;33538;48.432;11.350;2022-09-09T03:34:19;16.20;85.70
47779;DHT22;33538;48.432;11.350;2022-09-09T03:36:47;16.30;85.60
47779;DHT22;33538;48.432;11.350;2022-09-09T03:39:14;16.30;85.00
47779;DHT22;33538;48.432;11.350;2022-09-09T03:41:41;16.30;85.60
47779;DHT22;33538;48.432;11.350;2022-09-09T03:44:08;16.40;84.60
47779;DHT22;33538;48.432;11.350;2022-09-09T03:46:34;16.40;84.10
47779;DHT22;33538;48.432;11.350;2022-09-09T03:49:01;16.40;83.60
47779;DHT22;33538;48.432;11.350;2022-09-09T03:51:28;16.40;83.90
47779;DHT22;33538;48.432;11.350;2022-09-09T03:53:56;16.40;84.70
47779;DHT22;33538;48.432;11.350;2022-09-09T03:56:23;16.30;83.90
47779;DHT22;33538;48.432;11.350;2022-09-09T03:58:50;16.40;84.40
47779;DHT22;33538;48.432;11.350;2022-09-09T04:01:16;16.20;83.90
47779;DHT22;33538;48.432;11.350;2022-09-09T04:03:44;16.30;84.30
47779;DHT22;33538;48.432;11.350;2022-09-09T04:06:11;16.30;84.20
47779;DHT22;33538;48.432;11.350;2022-09-09T04:08:39;16.10;85.10
47779;DHT22;33538;48.432;11.350;2022-09-09T04:11:07;16.10;84.40
47779;DHT22;33538;48.432;11.350;2022-09-09T04:13:35;16.20;84.50
47779;DHT22;33538;48.432;11.350;2022-09-09T04:16:02;16.30;83.80
47779;DHT22;33538;48.432;11.350;2022-09-09T04:18:30;16.20;84.10
47779;DHT22;33538;48.432;11.350;2022-09-09T04:20:57;16.10;84.00
47779;DHT22;33538;48.432;11.350;2022-09-09T04:23:25;15.80;86.90
47779;DHT22;33538;48.432;11.350;2022-09-09T04:25:53;15.80;86.50
47779;DHT22;33538;48.432;11.350;2022-09-09T04:28:24;16.00;85.30
47779;DHT22;33538;48.432;11.350;2022-09-09T04:30:51;16.10;84.60
47779;DHT22;33538;48.432;11.350;2022-09-09T04:33:19;16.10;84.00
47779;DHT22;33538;48.432;11.350;2022-09-09T04:35:46;16.10;84.40
47779;DHT22;33538;48.432;11.350;2022-09-09T04:38:14;16.10;83.50
47779;DHT22;33538;48.432;11.350;2022-09-09T04:40:42;16.10;83.40
47779;DHT22;33538;48.432;11.350;2022-09-09T04:43:10;16.10;83.40
47779;DHT22;33538;48.432;11.350;2022-09-09T04:45:41;16.10;83.30
47779;DHT22;33538;48.432;11.350;2022-09-09T04:48:09;16.00;83.60
47779;DHT22;33538;48.432;11.350;2022-09-09T04:50:36;16.20;82.70
47779;DHT22;33538;48.432;11.350;2022-09-09T04:53:03;16.10;83.30
47779;DHT22;33538;48.432;11.350;2022-09-09T04:55:29;16.00;83.60
47779;DHT22;33538;48.432;11.350;2022-09-09T04:57:56;15.90;86.10
47779;DHT22;33538;48.432;11.350;2022-09-09T05:00:23;15.80;86.50
47779;DHT22;33538;48.432;11.350;2022-09-09T05:02:51;15.90;85.20
47779;DHT22;33538;48.432;11.350;2022-09-09T05:05:18;15.90;85.80
47779;DHT22;33538;48.432;11.350;2022-09-09T05:07:45;15.90;86.20
47779;DHT22;33538;48.432;11.350;2022-09-09T05:10:11;15.70;86.90
47779;DHT22;33538;48.432;11.350;2022-09-09T05:12:38;15.90;86.90
47779;DHT22;33538;48.432;11.350;2022-09-09T05:15:06;16.00;86.40
47779;DHT22;33538;48.432;11.350;2022-09-09T05:17:33;16.00;84.80
47779;DHT22;33538;48.432;11.350;2022-09-09T05:20:01;16.00;84.50
47779;DHT22;33538;48.432;11.350;2022-09-09T05:22:33;16.10;85.10
47779;DHT22;33538;48.432;11.350;2022-09-09T05:25:00;16.10;85.80
47779;DHT22;33538;48.432;11.350;2022-09-09T05:27:26;16.10;85.30
47779;DHT22;33538;48.432;11.350;2022-09-09T05:29:53;16.10;86.10
47779;DHT22;33538;48.432;11.350;2022-09-09T05:32:20;16.10;86.10
47779;DHT22;33538;48.432;11.350;2022-09-09T05:34:47;16.00;85.70
47779;DHT22;33538;48.432;11.350;2022-09-09T05:37:15;16.00;87.60
47779;DHT22;33538;48.432;11.350;2022-09-09T05:39:42;16.10;89.60
47779;DHT22;33538;48.432;11.350;2022-09-09T05:42:09;16.10;87.70
47779;DHT22;33538;48.432;11.350;2022-09-09T05:44:36;16.10;88.70
47779;DHT22;33538;48.432;11.350;2022-09-09T05:47:03;16.10;89.70
47779;DHT22;33538;48.432;11.350;2022-09-09T05:49:30;16.00;89.50
47779;DHT22;33538;48.432;11.350;2022-09-09T05:51:56;16.20;89.00
47779;DHT22;33538;48.432;11.350;2022-09-09T05:54:43;16.20;90.70
47779;DHT22;33538;48.432;11.350;2022-09-09T05:57:09;16.10;91.70
47779;DHT22;33538;48.432;11.350;2022-09-09T05:59:36;16.00;90.70
47779;DHT22;33538;48.432;11.350;2022-09-09T06:02:03;16.10;91.60
47779;DHT22;33538;48.432;11.350;2022-09-09T06:04:30;16.20;91.50
47779;DHT22;33538;48.432;11.350;2022-09-09T06:06:56;16.20;90.20
47779;DHT22;33538;48.432;11.350;2022-09-09T06:09:23;16.20;90.60
47779;DHT22;33538;48.432;11.350;2022-09-09T06:11:51;16.30;90.80
47779;DHT22;33538;48.432;11.350;2022-09-09T06:14:18;16.20;92.00
47779;DHT22;33538;48.432;11.350;2022-09-09T06:16:44;16.20;91.00
47779;DHT22;33538;48.432;11.350;2022-09-09T06:19:11;16.20;90.90
47779;DHT22;33538;48.432;11.350;2022-09-09T06:21:38;16.30;90.50
47779;DHT22;33538;48.432;11.350;2022-09-09T06:24:05;16.30;91.40
47779;DHT22;33538;48.432;11.350;2022-09-09T06:26:34;16.30;91.20
47779;DHT22;33538;48.432;11.350;2022-09-09T06:29:03;16.20;90.20
47779;DHT22;33538;48.432;11.350;2022-09-09T06:31:32;16.20;90.60
47779;DHT22;33538;48.432;11.350;2022-09-09T06:33:59;16.30;91.20
47779;DHT22;33538;48.432;11.350;2022-09-09T06:36:28;16.30;90.70
47779;DHT22;33538;48.432;11.350;2022-09-09T06:38:55;16.40;90.60
47779;DHT22;33538;48.432;11.350;2022-09-09T06:41:23;16.40;91.80
47779;DHT22;33538;48.432;11.350;2022-09-09T06:43:50;16.40;91.60
47779;DHT22;33538;48.432;11.350;2022-09-09T06:46:19;16.40;91.10
47779;DHT22;33538;48.432;11.350;2022-09-09T06:48:46;16.50;93.40
47779;DHT22;33538;48.432;11.350;2022-09-09T06:51:15;16.50;93.30
47779;DHT22;33538;48.432;11.350;2022-09-09T06:53:44;16.50;94.00
47779;DHT22;33538;48.432;11.350;2022-09-09T06:56:19;16.50;93.20
47779;DHT22;33538;48.432;11.350;2022-09-09T06:58:47;16.50;93.50
47779;DHT22;33538;48.432;11.350;2022-09-09T07:01:15;16.40;92.30
47779;DHT22;33538;48.432;11.350;2022-09-09T07:03:46;16.40;93.70
47779;DHT22;33538;48.432;11.350;2022-09-09T07:06:14;16.20;95.00
47779;DHT22;33538;48.432;11.350;2022-09-09T07:08:41;16.30;94.50
47779;DHT22;33538;48.432;11.350;2022-09-09T07:11:09;16.40;94.80
47779;DHT22;33538;48.432;11.350;2022-09-09T07:13:38;16.40;94.60
47779;DHT22;33538;48.432;11.350;2022-09-09T07:16:06;16.40;95.00
47779;DHT22;33538;48.432;11.350;2022-09-09T07:18:33;16.50;95.40
47779;DHT22;33538;48.432;11.350;2022-09-09T07:21:02;16.50;95.60
47779;DHT22;33538;48.432;11.350;2022-09-09T07:23:30;16.50;95.60
47779;DHT22;33538;48.432;11.350;2022-09-09T07:26:02;16.50;95.80
47779;DHT22;33538;48.432;11.350;2022-09-09T07:28:29;16.60;96.10
47779;DHT22;33538;48.432;11.350;2022-09-09T07:30:56;16.60;96.20
47779;DHT22;33538;48.432;11.350;2022-09-09T07:33:24;16.60;96.50
47779;DHT22;33538;48.432;11.350;2022-09-09T07:35:51;16.60;96.50
47779;DHT22;33538;48.432;11.350;2022-09-09T07:38:19;16.60;97.00
47779;DHT22;33538;48.432;11.350;2022-09-09T07:40:46;16.60;97.50
47779;DHT22;33538;48.432;11.350;2022-09-09T07:43:13;16.60;97.20
47779;DHT22;33538;48.432;11.350;2022-09-09T07:45:43;16.70;97.30
47779;DHT22;33538;48.432;11.350;2022-09-09T07:48:09;16.70;97.20
47779;DHT22;33538;48.432;11.350;2022-09-09T07:50:37;16.70;97.10
47779;DHT22;33538;48.432;11.350;2022-09-09T07:53:04;16.70;97.20
47779;DHT22;33538;48.432;11.350;2022-09-09T07:55:32;16.80;97.30
47779;DHT22;33538;48.432;11.350;2022-09-09T07:57:59;16.80;96.40
47779;DHT22;33538;48.432;11.350;2022-09-09T08:00:26;16.80;97.10
47779;DHT22;33538;48.432;11.350;2022-09-09T08:02:52;16.80;96.60
47779;DHT22;33538;48.432;11.350;2022-09-09T08:05:19;16.80;98.00
47779;DHT22;33538;48.432;11.350;2022-09-09T08:07:46;16.80;95.10
47779;DHT22;33538;48.432;11.350;2022-09-09T08:10:13;16.90;97.50
47779;DHT22;33538;48.432;11.350;2022-09-09T08:12:41;16.90;96.70
47779;DHT22;33538;48.432;11.350;2022-09-09T08:15:27;16.90;95.40
47779;DHT22;33538;48.432;11.350;2022-09-09T08:17:56;16.80;96.40
47779;DHT22;33538;48.432;11.350;2022-09-09T08:20:23;16.90;96.60
47779;DHT22;33538;48.432;11.350;2022-09-09T08:22:51;16.90;95.20
47779;DHT22;33538;48.432;11.350;2022-09-09T08:25:18;16.90;97.50
47779;DHT22;33538;48.432;11.350;2022-09-09T08:27:47;16.90;96.50
47779;DHT22;33538;48.432;11.350;2022-09-09T08:30:16;16.90;96.20
47779;DHT22;33538;48.432;11.350;2022-09-09T08:32:43;16.90;97.90
47779;DHT22;33538;48.432;11.350;2022-09-09T08:35:12;16.90;96.20
47779;DHT22;33538;48.432;11.350;2022-09-09T08:37:39;16.90;97.80
47779;DHT22;33538;48.432;11.350;2022-09-09T08:40:09;17.00;97.10
47779;DHT22;33538;48.432;11.350;2022-09-09T08:42:46;17.00;98.80
47779;DHT22;33538;48.432;11.350;2022-09-09T08:45:25;17.10;96.70
47779;DHT22;33538;48.432;11.350;2022-09-09T08:48:06;17.10;95.60
47779;DHT22;33538;48.432;11.350;2022-09-09T08:50:37;17.20;95.70
47779;DHT22;33538;48.432;11.350;2022-09-09T08:53:10;17.20;95.20
47779;DHT22;33538;48.432;11.350;2022-09-09T08:55:43;17.30;94.40
47779;DHT22;33538;48.432;11.350;2022-09-09T08:58:15;17.30;93.90
47779;DHT22;33538;48.432;11.350;2022-09-09T09:01:00;17.40;94.20
47779;DHT22;33538;48.432;11.350;2022-09-09T09:03:35;17.40;94.10
47779;DHT22;33538;48.432;11.350;2022-09-09T09:06:08;17.40;93.90
47779;DHT22;33538;48.432;11.350;2022-09-09T09:08:45;17.40;93.80
47779;DHT22;33538;48.432;11.350;2022-09-09T09:11:13;17.50;93.50
47779;DHT22;33538;48.432;11.350;2022-09-09T09:13:47;17.50;93.20
47779;DHT22;33538;48.432;11.350;2022-09-09T09:16:25;17.50;93.20
47779;DHT22;33538;48.432;11.350;2022-09-09T09:18:54;17.50;93.40
47779;DHT22;33538;48.432;11.350;2022-09-09T09:21:29;17.60;93.10
47779;DHT22;33538;48.432;11.350;2022-09-09T09:24:00;17.60;93.20
47779;DHT22;33538;48.432;11.350;2022-09-09T09:26:31;17.60;93.30
47779;DHT22;33538;48.432;11.350;2022-09-09T09:29:10;17.60;93.10
47779;DHT22;33538;48.432;11.350;2022-09-09T09:31:38;17.70;92.80
47779;DHT22;33538;48.432;11.350;2022-09-09T09:34:07;17.70;92.80
47779;DHT22;33538;48.432;11.350;2022-09-09T09:36:40;17.70;93.20
47779;DHT22;33538;48.432;11.350;2022-09-09T09:39:08;17.70;93.20
47779;DHT22;33538;48.432;11.350;2022-09-09T09:41:57;17.70;94.00
47779;DHT22;33538;48.432;11.350;2022-09-09T09:44:28;17.80;93.50
47779;DHT22;33538;48.432;11.350;2022-09-09T09:47:06;17.80;93.80
47779;DHT22;33538;48.432;11.350;2022-09-09T09:49:33;17.80;93.80
47779;DHT22;33538;48.432;11.350;2022-09-09T09:52:01;17.80;93.40
47779;DHT22;33538;48.432;11.350;2022-09-09T09:54:30;17.90;93.20
47779;DHT22;33538;48.432;11.350;2022-09-09T09:57:09;17.80;93.60
47779;DHT22;33538;48.432;11.350;2022-09-09T09:59:39;17.90;93.70
47779;DHT22;33538;48.432;11.350;2022-09-09T10:02:15;17.90;93.70
47779;DHT22;33538;48.432;11.350;2022-09-09T10:04:46;17.90;94.00
47779;DHT22;33538;48.432;11.350;2022-09-09T10:07:17;17.90;93.90
47779;DHT22;33538;48.432;11.350;2022-09-09T10:09:50;18.00;93.80
47779;DHT22;33538;48.432;11.350;2022-09-09T10:12:22;18.00;94.50
47779;DHT22;33538;48.432;11.350;2022-09-09T10:15:01;18.00;93.60
47779;DHT22;33538;48.432;11.350;2022-09-09T10:17:33;18.10;93.90
47779;DHT22;33538;48.432;11.350;2022-09-09T10:20:14;18.10;94.40
47779;DHT22;33538;48.432;11.350;2022-09-09T10:22:47;18.10;94.30
47779;DHT22;33538;48.432;11.350;2022-09-09T10:25:38;18.10;94.60
47779;DHT22;33538;48.432;11.350;2022-09-09T10:28:30;18.20;94.70
47779;DHT22;33538;48.432;11.350;2022-09-09T10:31:11;18.20;95.10
47779;DHT22;33538;48.432;11.350;2022-09-09T10:33:49;18.20;94.80
47779;DHT22;33538;48.432;11.350;2022-09-09T10:36:20;18.30;95.30
47779;DHT22;33538;48.432;11.350;2022-09-09T10:38:49;18.30;95.20
47779;DHT22;33538;48.432;11.350;2022-09-09T10:41:21;18.30;95.50
47779;DHT22;33538;48.432;11.350;2022-09-09T10:44:17;18.40;95.30
47779;DHT22;33538;48.432;11.350;2022-09-09T10:46:59;18.40;95.50
47779;DHT22;33538;48.432;11.350;2022-09-09T10:49:51;18.40;95.50
47779;DHT22;33538;48.432;11.350;2022-09-09T10:52:30;18.40;95.80
47779;DHT22;33538;48.432;11.350;2022-09-09T10:55:02;18.40;95.70
47779;DHT22;33538;48.432;11.350;2022-09-09T10:57:37;18.50;95.90
47779;DHT22;33538;48.432;11.350;2022-09-09T11:00:14;18.50;95.70
47779;DHT22;33538;48.432;11.350;2022-09-09T11:02:43;18.50;95.70
47779;DHT22;33538;48.432;11.350;2022-09-09T11:05:16;18.50;95.60
47779;DHT22;33538;48.432;11.350;2022-09-09T11:07:48;18.50;95.80
47779;DHT22;33538;48.432;11.350;2022-09-09T11:10:24;18.50;95.70
47779;DHT22;33538;48.432;11.350;2022-09-09T11:12:54;18.50;95.80
47779;DHT22;33538;48.432;11.350;2022-09-09T11:15:28;18.50;95.70
47779;DHT22;33538;48.432;11.350;2022-09-09T11:17:59;18.50;95.60
47779;DHT22;33538;48.432;11.350;2022-09-09T11:20:27;18.50;95.80
47779;DHT22;33538;48.432;11.350;2022-09-09T11:22:58;18.60;95.80
47779;DHT22;33538;48.432;11.350;2022-09-09T11:25:31;18.60;95.70
47779;DHT22;33538;48.432;11.350;2022-09-09T11:28:12;18.60;95.60
47779;DHT22;33538;48.432;11.350;2022-09-09T11:30:50;18.60;95.60
47779;DHT22;33538;48.432;11.350;2022-09-09T11:33:48;18.60;95.70
47779;DHT22;33538;48.432;11.350;2022-09-09T11:36:25;18.60;95.60
47779;DHT22;33538;48.432;11.350;2022-09-09T11:38:59;18.60;95.70
47779;DHT22;33538;48.432;11.350;2022-09-09T11:41:35;18.60;95.50
47779;DHT22;33538;48.432;11.350;2022-09-09T11:44:10;18.60;95.50
47779;DHT22;33538;48.432;11.350;2022-09-09T11:46:38;18.60;95.60
47779;DHT22;33538;48.432;11.350;2022-09-09T11:49:27;18.70;95.60
47779;DHT22;33538;48.432;11.350;2022-09-09T11:51:54;18.70;95.60
47779;DHT22;33538;48.432;11.350;2022-09-09T11:54:28;18.70;95.50
47779;DHT22;33538;48.432;11.350;2022-09-09T11:56:56;18.70;95.60
47779;DHT22;33538;48.432;11.350;2022-09-09T11:59:24;18.70;95.60
47779;DHT22;33538;48.432;11.350;2022-09-09T12:01:55;18.70;95.70
47779;DHT22;33538;48.432;11.350;2022-09-09T12:04:32;18.70;95.60
47779;DHT22;33538;48.432;11.350;2022-09-09T12:07:01;18.70;95.50
47779;DHT22;33538;48.432;11.350;2022-09-09T12:09:46;18.70;95.50
47779;DHT22;33538;48.432;11.350;2022-09-09T12:12:26;18.80;95.40
47779;DHT22;33538;48.432;11.350;2022-09-09T12:15:16;18.80;95.40
47779;DHT22;33538;48.432;11.350;2022-09-09T12:17:45;18.80;95.50
47779;DHT22;33538;48.432;11.350;2022-09-09T12:20:17;18.80;95.60
47779;DHT22;33538;48.432;11.350;2022-09-09T12:22:54;18.80;95.60
47779;DHT22;33538;48.432;11.350;2022-09-09T12:25:30;18.80;95.40
47779;DHT22;33538;48.432;11.350;2022-09-09T12:28:04;18.80;95.50
47779;DHT22;33538;48.432;11.350;2022-09-09T12:30:37;18.80;95.50
47779;DHT22;33538;48.432;11.350;2022-09-09T12:33:08;18.90;95.70
47779;DHT22;33538;48.432;11.350;2022-09-09T12:35:38;18.90;95.60
47779;DHT22;33538;48.432;11.350;2022-09-09T12:38:06;18.90;95.40
47779;DHT22;33538;48.432;11.350;2022-09-09T12:40:37;18.90;95.50
47779;DHT22;33538;48.432;11.350;2022-09-09T12:43:17;18.90;95.40
47779;DHT22;33538;48.432;11.350;2022-09-09T12:45:44;18.90;95.40
47779;DHT22;33538;48.432;11.350;2022-09-09T12:48:11;18.90;95.30
47779;DHT22;33538;48.432;11.350;2022-09-09T12:50:45;18.90;95.20
47779;DHT22;33538;48.432;11.350;2022-09-09T12:53:15;19.00;95.20
47779;DHT22;33538;48.432;11.350;2022-09-09T12:55:51;18.90;95.10
47779;DHT22;33538;48.432;11.350;2022-09-09T12:58:19;19.00;95.10
47779;DHT22;33538;48.432;11.350;2022-09-09T13:00:50;19.00;95.10
47779;DHT22;33538;48.432;11.350;2022-09-09T13:03:19;19.00;95.20
47779;DHT22;33538;48.432;11.350;2022-09-09T13:05:48;19.00;95.00
47779;DHT22;33538;48.432;11.350;2022-09-09T13:08:16;19.00;95.10
47779;DHT22;33538;48.432;11.350;2022-09-09T13:10:46;19.00;94.90
47779;DHT22;33538;48.432;11.350;2022-09-09T13:13:21;19.00;94.90
47779;DHT22;33538;48.432;11.350;2022-09-09T13:15:50;19.00;94.70
47779;DHT22;33538;48.432;11.350;2022-09-09T13:18:22;19.00;94.70
47779;DHT22;33538;48.432;11.350;2022-09-09T13:20:51;19.00;94.70
47779;DHT22;33538;48.432;11.350;2022-09-09T13:23:19;19.10;94.50
47779;DHT22;33538;48.432;11.350;2022-09-09T13:25:54;19.10;94.50
47779;DHT22;33538;48.432;11.350;2022-09-09T13:28:23;19.10;94.40
47779;DHT22;33538;48.432;11.350;2022-09-09T13:30:57;19.10;94.30
47779;DHT22;33538;48.432;11.350;2022-09-09T13:33:31;19.10;94.20
47779;DHT22;33538;48.432;11.350;2022-09-09T13:36:02;19.10;94.10
47779;DHT22;33538;48.432;11.350;2022-09-09T13:38:31;19.10;94.10
47779;DHT22;33538;48.432;11.350;2022-09-09T13:40:59;19.10;94.00
47779;DHT22;33538;48.432;11.350;2022-09-09T13:43:27;19.10;94.00
47779;DHT22;33538;48.432;11.350;2022-09-09T13:45:57;19.10;93.90
47779;DHT22;33538;48.432;11.350;2022-09-09T13:48:24;19.10;93.90
47779;DHT22;33538;48.432;11.350;2022-09-09T13:51:01;19.10;93.80
47779;DHT22;33538;48.432;11.350;2022-09-09T13:53:28;19.20;93.90
47779;DHT22;33538;48.432;11.350;2022-09-09T13:55:55;19.20;93.80
47779;DHT22;33538;48.432;11.350;2022-09-09T13:58:22;19.20;93.80
47779;DHT22;33538;48.432;11.350;2022-09-09T14:00:48;19.20;93.70
47779;DHT22;33538;48.432;11.350;2022-09-09T14:03:15;19.20;93.70
47779;DHT22;33538;48.432;11.350;2022-09-09T14:05:43;19.20;93.70
47779;DHT22;33538;48.432;11.350;2022-09-09T14:08:22;19.20;93.60
47779;DHT22;33538;48.432;11.350;2022-09-09T14:10:50;19.20;93.60
47779;DHT22;33538;48.432;11.350;2022-09-09T14:13:17;19.30;93.50
47779;DHT22;33538;48.432;11.350;2022-09-09T14:15:44;19.30;93.50
47779;DHT22;33538;48.432;11.350;2022-09-09T14:18:12;19.30;93.40
47779;DHT22;33538;48.432;11.350;2022-09-09T14:20:39;19.30;93.30
47779;DHT22;33538;48.432;11.350;2022-09-09T14:23:05;19.30;93.10
47779;DHT22;33538;48.432;11.350;2022-09-09T14:25:33;19.30;92.90
47779;DHT22;33538;48.432;11.350;2022-09-09T14:28:01;19.30;92.90
47779;DHT22;33538;48.432;11.350;2022-09-09T14:30:27;19.30;92.80
47779;DHT22;33538;48.432;11.350;2022-09-09T14:32:54;19.30;92.70
47779;DHT22;33538;48.432;11.350;2022-09-09T14:35:21;19.30;92.60
47779;DHT22;33538;48.432;11.350;2022-09-09T14:37:48;19.30;92.50
47779;DHT22;33538;48.432;11.350;2022-09-09T14:40:14;19.30;92.40
47779;DHT22;33538;48.432;11.350;2022-09-09T14:42:43;19.30;92.30
47779;DHT22;33538;48.432;11.350;2022-09-09T14:45:11;19.30;92.30
47779;DHT22;33538;48.432;11.350;2022-09-09T14:47:37;19.30;92.10
47779;DHT22;33538;48.432;11.350;2022-09-09T14:50:05;19.30;92.00
47779;DHT22;33538;48.432;11.350;2022-09-09T14:52:32;19.30;91.90
47779;DHT22;33538;48.432;11.350;2022-09-09T14:54:58;19.30;91.80
47779;DHT22;33538;48.432;11.350;2022-09-09T14:57:25;19.20;91.70
47779;DHT22;33538;48.432;11.350;2022-09-09T14:59:53;19.20;91.50
47779;DHT22;33538;48.432;11.350;2022-09-09T15:02:20;19.20;91.10
47779;DHT22;33538;48.432;11.350;2022-09-09T15:04:53;19.20;91.60
47779;DHT22;33538;48.432;11.350;2022-09-09T15:07:19;19.20;91.00
47779;DHT22;33538;48.432;11.350;2022-09-09T15:09:46;19.20;89.60
47779;DHT22;33538;48.432;11.350;2022-09-09T15:12:13;19.30;86.30
47779;DHT22;33538;48.432;11.350;2022-09-09T15:14:40;19.30;85.10
47779;DHT22;33538;48.432;11.350;2022-09-09T15:17:08;19.20;86.40
47779;DHT22;33538;48.432;11.350;2022-09-09T15:19:34;19.20;88.20
47779;DHT22;33538;48.432;11.350;2022-09-09T15:22:01;19.20;88.80
47779;DHT22;33538;48.432;11.350;2022-09-09T15:24:28;19.20;85.90
47779;DHT22;33538;48.432;11.350;2022-09-09T15:26:54;19.20;86.30
47779;DHT22;33538;48.432;11.350;2022-09-09T15:29:21;19.20;83.60
47779;DHT22;33538;48.432;11.350;2022-09-09T15:31:48;19.20;84.00
47779;DHT22;33538;48.432;11.350;2022-09-09T15:34:16;19.20;85.40
47779;DHT22;33538;48.432;11.350;2022-09-09T15:36:44;19.20;85.40